M/T Pazar — TCMC — position and weather

sailwx.info

Track history (hours):
 
Tides and Currents Weather Stations Pressure Air Temp Water Temp Dewpoint Dewpoint Depression Visibility Wind Speed Wind Dir Waves Ship Positions

M/T Pazar

Last reported at 2015-Mar-28 13:27 UTC. Time now 2015-Mar-28 16:03 UTC.
Position N 39°39' W 009°50'.

Length 85 m; draft 5.5 m.

Type: Ship (hazmat cat B). MMSI: 271000251.

Date/timePositionNaut miles runAvg speedWind from/ knotsBaromVisibWave heightAir tempDewpointWater temp
2015-Mar-28 13:27N 39°39' W 009°50'9 9.9
2015-Mar-28 12:32N 39°30' W 009°51'19 9.7
2015-Mar-28 10:33N 39°11' W 009°51'13 9.8
2015-Mar-28 09:11N 38°57' W 009°51'6 9.7
2015-Mar-28 08:33N 38°51' W 009°51'9 9.2
2015-Mar-28 07:33N 38°42' W 009°51'8 8.1
2015-Mar-28 06:33N 38°38' W 009°42'1010.3
2015-Mar-28 05:33N 38°37' W 009°29'1010.4
2015-Mar-28 04:33N 38°41' W 009°17'4 2.9
2015-Mar-28 03:06N 38°41' W 009°11'0 0.0
2015-Mar-28 02:30N 38°41' W 009°11'0 0.0
2015-Mar-28 01:12N 38°41' W 009°11'0 0.0
2015-Mar-28 00:21N 38°41' W 009°11'0 0.0
2015-Mar-27 23:24N 38°41' W 009°11'0 0.0
2015-Mar-27 22:12N 38°41' W 009°11'0 0.0
2015-Mar-27 21:30N 38°41' W 009°11'0 0.0
2015-Mar-27 20:15N 38°41' W 009°11'0 0.0
2015-Mar-27 19:24N 38°41' W 009°11'0 0.0
2015-Mar-27 18:33N 38°41' W 009°11'0 0.0
2015-Mar-27 17:30N 38°41' W 009°11'0 0.0
2015-Mar-27 16:06N 38°41' W 009°11'0 0.0
2015-Mar-27 15:27N 38°41' W 009°11'0 0.0
2015-Mar-27 14:18N 38°41' W 009°11'0 0.0
2015-Mar-27 13:30N 38°41' W 009°11'0 0.0
2015-Mar-27 12:33N 38°41' W 009°11'0 0.0
2015-Mar-27 11:30N 38°41' W 009°11'0 0.0
2015-Mar-27 10:12N 38°41' W 009°11'0 0.0
2015-Mar-27 09:33N 38°41' W 009°11'0 0.0
2015-Mar-27 08:33N 38°41' W 009°11'0 0.0
2015-Mar-27 07:21N 38°41' W 009°11'0 0.0
2015-Mar-27 06:30N 38°41' W 009°11'0 0.0
2015-Mar-27 05:18N 38°41' W 009°11'0 0.0
2015-Mar-27 04:24N 38°41' W 009°11'0 0.0
2015-Mar-27 03:30N 38°41' W 009°11'0 0.0
2015-Mar-27 02:18N 38°41' W 009°11'0 0.0
2015-Mar-27 01:30N 38°41' W 009°11'0 0.0
2015-Mar-27 00:24N 38°41' W 009°11'0 0.0
2015-Mar-26 23:30N 38°41' W 009°11'0 0.0
2015-Mar-26 22:33N 38°41' W 009°11'0 0.0
2015-Mar-26 21:24N 38°41' W 009°11'0 0.0
2015-Mar-26 20:06N 38°41' W 009°11'0 0.0
2015-Mar-26 19:18N 38°41' W 009°11'0 0.0
2015-Mar-26 18:30N 38°41' W 009°11'0 0.0
2015-Mar-26 17:30N 38°41' W 009°11'0 0.0
2015-Mar-26 16:33N 38°41' W 009°11'0 0.0
2015-Mar-26 15:27N 38°41' W 009°11'0 0.0
2015-Mar-26 14:30N 38°41' W 009°11'0 0.0
2015-Mar-26 13:30N 38°41' W 009°11'0 0.0
2015-Mar-26 12:33N 38°41' W 009°11'0 0.0
2015-Mar-26 11:30N 38°41' W 009°11'0 0.0
2015-Mar-26 10:30N 38°41' W 009°11'0 0.0
2015-Mar-26 09:30N 38°41' W 009°11'0 0.0
2015-Mar-26 08:33N 38°41' W 009°11'0 0.0
2015-Mar-26 07:27N 38°41' W 009°11'0 0.0
2015-Mar-26 05:18N 38°41' W 009°11'0 0.0
2015-Mar-26 04:33N 38°41' W 009°11'0 0.0
2015-Mar-26 03:33N 38°41' W 009°11'0 0.0
2015-Mar-26 02:18N 38°41' W 009°11'0 0.0
2015-Mar-26 01:18N 38°41' W 009°11'0 0.0
2015-Mar-26 00:18N 38°41' W 009°11'0 0.0
2015-Mar-25 23:30N 38°41' W 009°11'0 0.0
2015-Mar-25 22:30N 38°41' W 009°11'0 0.0
2015-Mar-25 21:33N 38°41' W 009°11'0 0.0
2015-Mar-25 20:33N 38°41' W 009°11'0 0.0
2015-Mar-25 19:33N 38°41' W 009°11'0 0.0
2015-Mar-25 18:21N 38°41' W 009°11'0 0.0
2015-Mar-25 17:33N 38°41' W 009°11'7 7.0
2015-Mar-25 16:33N 38°39' W 009°20'7 6.6
2015-Mar-25 15:33N 38°33' W 009°22'8 7.5
2015-Mar-25 14:32N 38°25' W 009°22'7 7.0
2015-Mar-25 13:33N 38°18' W 009°21'6 6.4
2015-Mar-25 12:33N 38°12' W 009°21'7 6.7
2015-Mar-25 11:33N 38°05' W 009°21'7 6.8
2015-Mar-25 10:33N 37°58' W 009°21'6 6.3
2015-Mar-25 09:33N 37°52' W 009°21'6 5.7
2015-Mar-25 08:33N 37°46' W 009°21'5 5.3
2015-Mar-25 07:33N 37°41' W 009°20'5 4.9
2015-Mar-25 06:33N 37°36' W 009°19'5 5.1
2015-Mar-25 05:28N 37°31' W 009°19'59 4.3
2015-Mar-24 15:29N 36°43' W 008°35'10 9.8
2015-Mar-24 14:27N 36°42' W 008°22'150 8.4
2015-Mar-23 20:29N 36°01' W 005°23'7 7.2
2015-Mar-23 19:33N 36°02' W 005°15'21710.8
2015-Mar-22 23:21N 36°35' W 000°48'810.4
2015-Mar-22 22:33N 36°37' W 000°38'  
Track history (hours):
 
Tides and Currents Weather Stations Pressure Air Temp Water Temp Dewpoint Dewpoint Depression Visibility Wind Speed Wind Dir Waves Ship Positions

M/T Pazar

Last reported at 2015-Mar-28 13:27 UTC. Time now 2015-Mar-28 16:03 UTC.
Position N 39°39' W 009°50'.

Length 85 m; draft 5.5 m.

Type: Ship (hazmat cat B). MMSI: 271000251.

Date/timePositionNaut miles runAvg speedWind from/ knotsBaromVisibWave heightAir tempDewpointWater temp
2015-Mar-28 13:27N 39°39' W 009°50'9 9.9
2015-Mar-28 12:32N 39°30' W 009°51'19 9.7
2015-Mar-28 10:33N 39°11' W 009°51'13 9.8
2015-Mar-28 09:11N 38°57' W 009°51'6 9.7
2015-Mar-28 08:33N 38°51' W 009°51'9 9.2
2015-Mar-28 07:33N 38°42' W 009°51'8 8.1
2015-Mar-28 06:33N 38°38' W 009°42'1010.3
2015-Mar-28 05:33N 38°37' W 009°29'1010.4
2015-Mar-28 04:33N 38°41' W 009°17'4 2.9
2015-Mar-28 03:06N 38°41' W 009°11'0 0.0
2015-Mar-28 02:30N 38°41' W 009°11'0 0.0
2015-Mar-28 01:12N 38°41' W 009°11'0 0.0
2015-Mar-28 00:21N 38°41' W 009°11'0 0.0
2015-Mar-27 23:24N 38°41' W 009°11'0 0.0
2015-Mar-27 22:12N 38°41' W 009°11'0 0.0
2015-Mar-27 21:30N 38°41' W 009°11'0 0.0
2015-Mar-27 20:15N 38°41' W 009°11'0 0.0
2015-Mar-27 19:24N 38°41' W 009°11'0 0.0
2015-Mar-27 18:33N 38°41' W 009°11'0 0.0
2015-Mar-27 17:30N 38°41' W 009°11'0 0.0
2015-Mar-27 16:06N 38°41' W 009°11'0 0.0
2015-Mar-27 15:27N 38°41' W 009°11'0 0.0
2015-Mar-27 14:18N 38°41' W 009°11'0 0.0
2015-Mar-27 13:30N 38°41' W 009°11'0 0.0
2015-Mar-27 12:33N 38°41' W 009°11'0 0.0
2015-Mar-27 11:30N 38°41' W 009°11'0 0.0
2015-Mar-27 10:12N 38°41' W 009°11'0 0.0
2015-Mar-27 09:33N 38°41' W 009°11'0 0.0
2015-Mar-27 08:33N 38°41' W 009°11'0 0.0
2015-Mar-27 07:21N 38°41' W 009°11'0 0.0
2015-Mar-27 06:30N 38°41' W 009°11'0 0.0
2015-Mar-27 05:18N 38°41' W 009°11'0 0.0
2015-Mar-27 04:24N 38°41' W 009°11'0 0.0
2015-Mar-27 03:30N 38°41' W 009°11'0 0.0
2015-Mar-27 02:18N 38°41' W 009°11'0 0.0
2015-Mar-27 01:30N 38°41' W 009°11'0 0.0
2015-Mar-27 00:24N 38°41' W 009°11'0 0.0
2015-Mar-26 23:30N 38°41' W 009°11'0 0.0
2015-Mar-26 22:33N 38°41' W 009°11'0 0.0
2015-Mar-26 21:24N 38°41' W 009°11'0 0.0
2015-Mar-26 20:06N 38°41' W 009°11'0 0.0
2015-Mar-26 19:18N 38°41' W 009°11'0 0.0
2015-Mar-26 18:30N 38°41' W 009°11'0 0.0
2015-Mar-26 17:30N 38°41' W 009°11'0 0.0
2015-Mar-26 16:33N 38°41' W 009°11'0 0.0
2015-Mar-26 15:27N 38°41' W 009°11'0 0.0
2015-Mar-26 14:30N 38°41' W 009°11'0 0.0
2015-Mar-26 13:30N 38°41' W 009°11'0 0.0
2015-Mar-26 12:33N 38°41' W 009°11'0 0.0
2015-Mar-26 11:30N 38°41' W 009°11'0 0.0
2015-Mar-26 10:30N 38°41' W 009°11'0 0.0
2015-Mar-26 09:30N 38°41' W 009°11'0 0.0
2015-Mar-26 08:33N 38°41' W 009°11'0 0.0
2015-Mar-26 07:27N 38°41' W 009°11'0 0.0
2015-Mar-26 05:18N 38°41' W 009°11'0 0.0
2015-Mar-26 04:33N 38°41' W 009°11'0 0.0
2015-Mar-26 03:33N 38°41' W 009°11'0 0.0
2015-Mar-26 02:18N 38°41' W 009°11'0 0.0
2015-Mar-26 01:18N 38°41' W 009°11'0 0.0
2015-Mar-26 00:18N 38°41' W 009°11'0 0.0
2015-Mar-25 23:30N 38°41' W 009°11'0 0.0
2015-Mar-25 22:30N 38°41' W 009°11'0 0.0
2015-Mar-25 21:33N 38°41' W 009°11'0 0.0
2015-Mar-25 20:33N 38°41' W 009°11'0 0.0
2015-Mar-25 19:33N 38°41' W 009°11'0 0.0
2015-Mar-25 18:21N 38°41' W 009°11'0 0.0
2015-Mar-25 17:33N 38°41' W 009°11'7 7.0
2015-Mar-25 16:33N 38°39' W 009°20'7 6.6
2015-Mar-25 15:33N 38°33' W 009°22'8 7.5
2015-Mar-25 14:32N 38°25' W 009°22'7 7.0
2015-Mar-25 13:33N 38°18' W 009°21'6 6.4
2015-Mar-25 12:33N 38°12' W 009°21'7 6.7
2015-Mar-25 11:33N 38°05' W 009°21'7 6.8
2015-Mar-25 10:33N 37°58' W 009°21'6 6.3
2015-Mar-25 09:33N 37°52' W 009°21'6 5.7
2015-Mar-25 08:33N 37°46' W 009°21'5 5.3
2015-Mar-25 07:33N 37°41' W 009°20'5 4.9
2015-Mar-25 06:33N 37°36' W 009°19'5 5.1
2015-Mar-25 05:28N 37°31' W 009°19'59 4.3
2015-Mar-24 15:29N 36°43' W 008°35'10 9.8
2015-Mar-24 14:27N 36°42' W 008°22'150 8.4
2015-Mar-23 20:29N 36°01' W 005°23'7 7.2
2015-Mar-23 19:33N 36°02' W 005°15'21710.8
2015-Mar-22 23:21N 36°35' W 000°48'810.4
2015-Mar-22 22:33N 36°37' W 000°38'  

Dump ship's entire track history